Time;durP1;ratioP1;P1;durP2;ratioP2;P2;SDS_P1;SDS_P2;PMS_P1;PMS_P2;Temp;Humidity;BMP_temperature;BMP_pressure;BME280_temperature;BME280_humidity;BME280_pressure;Samples;Min_cycle;Max_cycle;Signal;HPM_P1;HPM_P2
2023/02/26 00:00:22;;;;;;;;;1.75;1.75;;;;;6.89;83.62;101357.59;5043511;28;45547;-72
2023/02/26 00:02:47;;;;;;;;;5.25;3.00;;;;;6.85;83.36;101353.09;5032349;28;45900;-75
2023/02/26 00:05:15;;;;;;;;;2.00;2.00;;;;;6.84;83.67;101357.44;5053616;28;46156;-75
2023/02/26 00:07:41;;;;;;;;;4.00;1.25;;;;;6.82;83.53;101352.16;5033789;28;45470;-73
2023/02/26 00:10:08;;;;;;;;;5.00;2.00;;;;;6.82;84.04;101357.41;5033200;28;46348;-74
2023/02/26 00:12:34;;;;;;;;;2.00;2.00;;;;;6.86;83.74;101368.00;5028254;28;46060;-75
2023/02/26 00:15:00;;;;;;;;;5.00;3.00;;;;;6.85;83.36;101377.59;5026489;28;45799;-77
2023/02/26 00:17:25;;;;;;;;;1.75;1.75;;;;;6.87;83.20;101381.19;5028224;28;45840;-76
2023/02/26 00:19:52;;;;;;;;;2.50;1.50;;;;;6.83;82.88;101379.28;5035069;28;45535;-76
2023/02/26 00:22:18;;;;;;;;;3.00;2.00;;;;;6.85;82.51;101381.97;5015736;28;45551;-74
2023/02/26 00:24:43;;;;;;;;;1.75;1.75;;;;;6.84;82.00;101381.06;5042150;28;46830;-75
2023/02/26 00:27:10;;;;;;;;;2.50;2.00;;;;;6.80;81.71;101390.56;5038725;28;56854;-74
2023/02/26 00:29:36;;;;;;;;;5.25;3.25;;;;;6.79;81.25;101390.50;5017334;28;45546;-74
2023/02/26 00:32:05;;;;;;;;;5.00;2.25;;;;;6.78;81.61;101404.47;5053998;28;45878;-74
2023/02/26 00:34:31;;;;;;;;;2.75;2.75;;;;;6.73;81.42;101396.44;5034120;28;46507;-75
2023/02/26 00:37:12;;;;;;;;;5.50;3.00;;;;;6.75;81.24;101413.13;5049697;28;45883;-74
2023/02/26 00:39:45;;;;;;;;;6.75;1.00;;;;;6.74;81.36;101410.44;5052382;28;45532;-75
2023/02/26 00:42:12;;;;;;;;;1.75;1.50;;;;;6.69;81.01;101407.66;5055821;28;45448;-74
2023/02/26 00:44:39;;;;;;;;;5.50;1.50;;;;;6.60;81.10;101395.94;5027178;28;48262;-74
2023/02/26 00:47:13;;;;;;;;;1.75;1.75;;;;;6.66;81.10;101417.13;5057809;28;45529;-76
2023/02/26 00:50:04;;;;;;;;;6.00;2.00;;;;;6.59;80.43;101410.78;5050355;28;45502;-76
2023/02/26 00:52:43;;;;;;;;;3.00;2.00;;;;;6.53;80.35;101413.19;5034746;28;45626;-75
2023/02/26 00:55:08;;;;;;;;;1.75;1.75;;;;;6.45;79.95;101410.28;5056805;28;46534;-76
2023/02/26 00:57:34;;;;;;;;;1.00;1.00;;;;;6.41;79.81;101412.75;5039694;28;45653;-75
2023/02/26 00:59:59;;;;;;;;;6.50;1.75;;;;;6.36;79.65;101420.44;5054096;28;45408;-76
2023/02/26 01:02:25;;;;;;;;;2.00;2.00;;;;;6.32;79.93;101415.00;5057159;28;56908;-75
2023/02/26 01:04:55;;;;;;;;;28.50;19.00;;;;;6.30;80.13;101423.72;5057811;28;47457;-74
2023/02/26 01:07:25;;;;;;;;;18.75;17.75;;;;;6.27;80.51;101420.97;5039892;28;45499;-76
2023/02/26 01:09:50;;;;;;;;;9.00;7.25;;;;;6.27;80.45;101423.59;5055278;28;45490;-75
2023/02/26 01:12:16;;;;;;;;;14.00;8.75;;;;;6.28;80.43;101421.88;5058635;28;45250;-74
2023/02/26 01:14:42;;;;;;;;;14.50;13.25;;;;;6.29;80.10;101426.31;5057419;28;45987;-74
2023/02/26 01:17:17;;;;;;;;;6.25;6.25;;;;;6.26;80.17;101427.06;5057778;28;45541;-75
2023/02/26 01:20:16;;;;;;;;;14.75;13.25;;;;;6.25;79.91;101427.91;5058183;28;45334;-75
2023/02/26 01:22:50;;;;;;;;;22.00;18.75;;;;;6.23;79.98;101423.41;5031324;28;45561;-74
2023/02/26 01:25:36;;;;;;;;;9.25;7.25;;;;;6.17;79.39;101417.94;5057560;28;47395;-75
2023/02/26 01:28:01;;;;;;;;;2.25;2.25;;;;;6.12;79.63;101416.88;5040429;28;45449;-75
2023/02/26 01:30:27;;;;;;;;;18.00;11.25;;;;;6.09;79.77;101417.66;5056680;28;46955;-75
2023/02/26 01:33:07;;;;;;;;;8.00;8.00;;;;;6.09;80.02;101417.66;5040338;28;45291;-75
2023/02/26 01:35:43;;;;;;;;;18.00;9.50;;;;;6.08;79.69;101422.84;5057576;28;46759;-75
2023/02/26 01:38:19;;;;;;;;;21.25;15.50;;;;;6.06;79.96;101424.50;5040457;28;45467;-75
2023/02/26 01:41:06;;;;;;;;;14.25;13.75;;;;;6.04;79.92;101422.72;5036314;28;45386;-75
2023/02/26 01:43:50;;;;;;;;;13.50;8.50;;;;;6.00;79.85;101412.06;5039038;28;45608;-75
2023/02/26 01:46:44;;;;;;;;;19.50;18.00;;;;;5.91;79.60;101407.38;5054781;28;46911;-75
2023/02/26 01:49:15;;;;;;;;;19.25;13.50;;;;;5.93;79.76;101418.81;5056528;28;45451;-75
2023/02/26 01:51:40;;;;;;;;;23.75;19.75;;;;;5.92;79.49;101431.84;5057748;28;45145;-75
2023/02/26 01:54:05;;;;;;;;;4.00;4.00;;;;;5.88;79.49;101427.28;5057550;28;45490;-75
2023/02/26 01:56:31;;;;;;;;;17.00;13.00;;;;;5.88;79.91;101438.66;5056607;28;59426;-75
2023/02/26 01:58:56;;;;;;;;;10.75;8.75;;;;;5.85;79.94;101433.28;5036001;28;54373;-75
2023/02/26 02:01:22;;;;;;;;;26.25;18.50;;;;;5.75;80.02;101429.44;5020509;28;51026;-75
2023/02/26 02:03:47;;;;;;;;;45.75;42.25;;;;;5.77;79.94;101435.59;5057340;28;51197;-75
2023/02/26 02:06:20;;;;;;;;;19.25;17.50;;;;;5.74;79.96;101440.72;5057100;28;53278;-75
2023/02/26 02:08:45;;;;;;;;;27.75;20.75;;;;;5.69;80.15;101428.25;5036532;28;45496;-75
2023/02/26 02:11:11;;;;;;;;;16.50;16.00;;;;;5.66;80.03;101442.16;5055653;28;45454;-75
2023/02/26 02:13:45;;;;;;;;;16.75;12.25;;;;;5.67;79.99;101436.06;5057505;28;46148;-75
2023/02/26 02:16:25;;;;;;;;;26.25;21.25;;;;;5.71;79.99;101442.34;5039522;28;45439;-75
2023/02/26 02:19:27;;;;;;;;;9.75;8.75;;;;;5.71;79.88;101439.72;5055885;28;45510;-75
2023/02/26 02:21:57;;;;;;;;;7.25;3.00;;;;;5.66;80.09;101436.91;5056030;28;45756;-75
2023/02/26 02:24:57;;;;;;;;;7.50;6.00;;;;;5.69;80.05;101442.25;5057323;28;45515;-75
2023/02/26 02:27:33;;;;;;;;;6.00;4.25;;;;;5.69;80.07;101439.63;5030119;28;45594;-75
2023/02/26 02:30:22;;;;;;;;;20.50;17.00;;;;;5.74;79.99;101439.81;5037666;28;45530;-75
2023/02/26 02:33:00;;;;;;;;;14.25;8.25;;;;;5.75;79.78;101445.16;5057239;28;45375;-75
2023/02/26 02:35:35;;;;;;;;;21.75;17.00;;;;;5.74;79.43;101440.72;5056022;28;45548;-75
2023/02/26 02:38:11;;;;;;;;;19.75;12.50;;;;;5.72;79.57;101437.16;5038872;28;47396;-75
2023/02/26 02:40:42;;;;;;;;;28.75;20.50;;;;;5.71;79.50;101442.34;5036051;28;45341;-75
2023/02/26 02:43:16;;;;;;;;;13.75;8.00;;;;;5.69;79.28;101434.38;5021568;28;45653;-75
2023/02/26 02:45:46;;;;;;;;;14.00;13.50;;;;;5.74;79.46;101443.34;5022351;28;45452;-74
2023/02/26 02:48:20;;;;;;;;;36.25;27.00;;;;;5.75;79.28;101444.22;5055386;28;46707;-75
2023/02/26 02:50:50;;;;;;;;;21.75;14.00;;;;;5.75;79.09;101460.88;5035814;28;45620;-75
2023/02/26 02:53:23;;;;;;;;;25.00;22.50;;;;;5.73;79.07;101456.38;5034228;28;45327;-75
2023/02/26 02:56:15;;;;;;;;;11.25;9.25;;;;;5.73;79.40;101461.63;5038172;28;45619;-75
2023/02/26 02:58:50;;;;;;;;;26.25;17.50;;;;;5.70;79.15;101466.72;5026354;28;46018;-75
2023/02/26 03:01:18;;;;;;;;;7.50;4.00;;;;;5.72;79.27;101465.06;5056702;28;45400;-74
2023/02/26 03:03:56;;;;;;;;;5.50;4.75;;;;;5.72;78.83;101468.59;5037384;28;45550;-75
2023/02/26 03:06:21;;;;;;;;;25.75;19.25;;;;;5.70;79.01;101472.88;5057191;28;45552;-75
2023/02/26 03:08:47;;;;;;;;;15.75;12.00;;;;;5.70;79.24;101475.50;5037046;28;53725;-75
2023/02/26 03:11:13;;;;;;;;;8.00;5.50;;;;;5.66;79.03;101468.34;5034633;28;45520;-74
2023/02/26 03:13:40;;;;;;;;;18.25;17.50;;;;;5.67;79.20;101471.84;5034284;28;56808;-75
2023/02/26 03:16:12;;;;;;;;;21.00;13.25;;;;;5.65;79.40;101471.81;5038836;28;45567;-75
2023/02/26 03:18:40;;;;;;;;;2.50;1.00;;;;;5.63;79.27;101473.44;5055940;28;46734;-75
2023/02/26 03:21:17;;;;;;;;;7.50;4.00;;;;;5.63;79.12;101472.56;5056058;28;45482;-75
2023/02/26 03:23:52;;;;;;;;;4.00;2.00;;;;;5.62;79.08;101474.28;5038460;28;47241;-75
2023/02/26 03:26:25;;;;;;;;;2.00;2.00;;;;;5.58;78.81;101467.13;5032427;28;45516;-74
2023/02/26 03:28:50;;;;;;;;;1.00;1.00;;;;;5.60;78.98;101478.56;5037992;28;46478;-74
2023/02/26 03:31:21;;;;;;;;;1.25;1.25;;;;;5.56;79.19;101470.53;5055941;28;45609;-75
2023/02/26 03:34:05;;;;;;;;;0.00;0.00;;;;;5.58;78.85;101474.09;5038079;28;45572;-74
2023/02/26 03:36:40;;;;;;;;;1.00;1.00;;;;;5.57;78.99;101475.81;5055829;28;47114;-75
2023/02/26 03:39:09;;;;;;;;;4.50;1.50;;;;;5.56;78.96;101476.66;5036470;28;46530;-75
2023/02/26 03:41:59;;;;;;;;;1.50;1.00;;;;;5.54;78.62;101473.09;5040261;28;45625;-75
2023/02/26 03:44:39;;;;;;;;;1.00;1.00;;;;;5.49;78.61;101483.38;5053520;28;45384;-75
2023/02/26 03:47:07;;;;;;;;;4.00;1.00;;;;;5.46;78.48;101478.00;5035989;28;45906;-74
2023/02/26 03:49:39;;;;;;;;;4.75;2.00;;;;;5.43;78.43;101479.56;5035636;28;45813;-75
2023/02/26 03:52:05;;;;;;;;;0.25;0.25;;;;;5.43;78.60;101482.19;5021685;28;45377;-75
2023/02/26 03:54:37;;;;;;;;;0.00;0.00;;;;;5.43;78.68;101475.25;5038044;28;52300;-74
2023/02/26 03:57:03;;;;;;;;;2.50;0.00;;;;;5.46;78.59;101500.66;5055877;28;45671;-75
2023/02/26 03:59:28;;;;;;;;;0.25;0.25;;;;;5.46;78.67;101496.31;5032138;28;47545;-75
2023/02/26 04:02:01;;;;;;;;;4.00;0.50;;;;;5.41;78.01;101495.22;5038131;28;45429;-74
2023/02/26 04:04:49;;;;;;;;;1.50;0.00;;;;;5.39;77.77;101494.28;5035980;28;45342;-75
2023/02/26 04:07:16;;;;;;;;;1.50;1.50;;;;;5.36;78.09;101498.50;5043172;28;45467;-74
2023/02/26 04:09:43;;;;;;;;;0.50;0.50;;;;;5.34;78.12;101501.03;5041573;28;45722;-74
2023/02/26 04:12:08;;;;;;;;;2.00;0.75;;;;;5.34;77.90;101490.56;5062080;28;45516;-74
2023/02/26 04:14:34;;;;;;;;;2.50;1.00;;;;;5.34;78.08;101501.03;5060484;28;54151;-75
2023/02/26 04:16:59;;;;;;;;;2.50;0.00;;;;;5.35;78.05;101501.94;5060312;28;45616;-75
2023/02/26 04:19:24;;;;;;;;;0.25;0.25;;;;;5.35;78.28;101509.78;5060492;28;59607;-75
2023/02/26 04:21:50;;;;;;;;;0.25;0.25;;;;;5.32;78.19;101504.41;5060974;28;45323;-75
2023/02/26 04:24:15;;;;;;;;;5.00;1.00;;;;;5.34;78.09;101508.00;5042235;28;48195;-75
2023/02/26 04:26:41;;;;;;;;;0.00;0.00;;;;;5.30;78.11;101508.69;5060956;28;54804;-75
2023/02/26 04:29:06;;;;;;;;;4.50;1.00;;;;;5.31;78.08;101513.09;5059858;28;62190;-74
2023/02/26 04:31:31;;;;;;;;;0.75;0.75;;;;;5.30;77.80;101513.94;5061021;28;45375;-75
2023/02/26 04:33:57;;;;;;;;;1.50;1.00;;;;;5.31;77.92;101518.34;5060539;28;46584;-74
2023/02/26 04:36:22;;;;;;;;;0.00;0.00;;;;;5.31;77.95;101520.97;5061097;28;54272;-74
2023/02/26 04:38:47;;;;;;;;;1.75;0.00;;;;;5.25;78.13;101511.13;5059639;28;62138;-74
2023/02/26 04:41:13;;;;;;;;;3.25;1.00;;;;;5.25;78.14;101524.22;5060740;28;46250;-75
2023/02/26 04:43:38;;;;;;;;;0.25;0.25;;;;;5.25;78.38;101534.69;5039027;28;52972;-75
2023/02/26 04:46:03;;;;;;;;;1.00;1.00;;;;;5.28;78.23;101536.56;5058108;28;53423;-74
2023/02/26 04:48:29;;;;;;;;;1.50;0.00;;;;;5.25;78.39;101532.94;5060287;28;46987;-74
2023/02/26 04:50:54;;;;;;;;;0.50;0.50;;;;;5.21;78.42;101531.03;5060238;28;53949;-75
2023/02/26 04:53:20;;;;;;;;;0.75;0.75;;;;;5.23;78.38;101536.34;5060581;28;45349;-75
2023/02/26 04:55:47;;;;;;;;;1.00;1.00;;;;;5.21;78.29;101541.50;5061100;28;45413;-75
2023/02/26 04:58:12;;;;;;;;;4.00;1.00;;;;;5.17;78.46;101547.44;5058747;28;46747;-75
2023/02/26 05:00:39;;;;;;;;;2.75;1.00;;;;;5.18;78.49;101544.00;5054005;28;56627;-75
2023/02/26 05:03:04;;;;;;;;;2.00;0.00;;;;;5.18;78.71;101544.00;5059818;28;45317;-74
2023/02/26 05:05:30;;;;;;;;;2.00;1.00;;;;;5.15;78.50;101554.31;5060511;28;45653;-75
2023/02/26 05:07:55;;;;;;;;;1.50;1.50;;;;;5.18;79.00;101556.19;5059977;28;46289;-74
2023/02/26 05:10:21;;;;;;;;;1.00;1.00;;;;;5.11;78.86;101555.00;5059916;28;45594;-75
2023/02/26 05:12:46;;;;;;;;;2.00;0.00;;;;;5.13;79.07;101555.09;5000839;28;1186119;-75
2023/02/26 05:15:12;;;;;;;;;2.00;1.00;;;;;5.12;78.88;101554.19;5043751;28;45244;-75
2023/02/26 05:17:37;;;;;;;;;5.00;1.00;;;;;5.08;78.80;101547.03;5059469;28;45508;-75
2023/02/26 05:20:04;;;;;;;;;1.75;1.00;;;;;5.10;78.88;101558.44;5039722;28;56695;-74
2023/02/26 05:22:30;;;;;;;;;1.00;1.00;;;;;5.07;79.17;101554.81;5039727;28;45519;-75
2023/02/26 05:24:55;;;;;;;;;3.50;1.00;;;;;5.06;79.19;101559.16;5058535;28;45296;-75
2023/02/26 05:27:20;;;;;;;;;2.50;1.00;;;;;5.05;79.25;101549.50;5057599;28;60442;-75
2023/02/26 05:29:46;;;;;;;;;1.25;1.00;;;;;5.05;79.15;101553.84;5057269;28;54397;-74
2023/02/26 05:32:11;;;;;;;;;2.50;1.75;;;;;5.02;79.25;101551.09;5057712;28;45431;-75
2023/02/26 05:34:36;;;;;;;;;8.00;1.00;;;;;5.00;79.24;101549.28;5057904;28;45752;-75
2023/02/26 05:37:02;;;;;;;;;2.50;1.00;;;;;4.97;79.05;101543.03;5057617;28;54655;-74
2023/02/26 05:39:28;;;;;;;;;3.50;1.00;;;;;4.96;79.14;101552.63;5040016;28;45481;-75
2023/02/26 05:41:54;;;;;;;;;1.25;1.25;;;;;4.94;79.51;101550.75;5058048;28;45438;-75
2023/02/26 05:44:20;;;;;;;;;0.75;0.75;;;;;4.92;79.73;101550.69;5058271;28;46633;-74
2023/02/26 05:46:45;;;;;;;;;5.00;2.00;;;;;4.92;79.94;101553.28;5039963;28;47021;-75
2023/02/26 05:49:11;;;;;;;;;1.50;1.50;;;;;4.91;80.47;101558.47;5058230;28;45760;-75
2023/02/26 05:51:36;;;;;;;;;4.00;1.25;;;;;4.89;79.88;101555.75;5037690;28;45945;-75
2023/02/26 05:54:01;;;;;;;;;3.50;1.75;;;;;4.87;79.79;101562.66;5058475;28;45459;-75
2023/02/26 05:56:27;;;;;;;;;1.00;1.00;;;;;4.89;80.06;101576.69;5036107;28;47638;-75
2023/02/26 05:58:52;;;;;;;;;1.75;1.75;;;;;4.84;79.76;101572.97;5035124;28;45409;-75
2023/02/26 06:01:17;;;;;;;;;6.25;2.50;;;;;4.85;79.66;101577.41;5039433;28;47259;-74
2023/02/26 06:03:43;;;;;;;;;3.50;1.75;;;;;4.82;79.88;101576.34;5057144;28;45344;-75
2023/02/26 06:06:14;;;;;;;;;3.00;3.00;;;;;4.84;80.09;101579.94;5057705;28;45678;-73
2023/02/26 06:08:40;;;;;;;;;2.00;2.00;;;;;4.83;80.76;101578.13;5057087;28;45309;-75
2023/02/26 06:11:05;;;;;;;;;0.50;0.50;;;;;4.81;80.56;101583.31;5038850;28;55279;-75
2023/02/26 06:13:30;;;;;;;;;2.00;2.00;;;;;4.80;80.50;101580.63;5161403;22;56603;-75
2023/02/26 06:15:56;;;;;;;;;4.50;2.00;;;;;4.78;80.58;101590.09;5034064;28;45849;-75
2023/02/26 06:18:21;;;;;;;;;3.25;1.00;;;;;4.76;80.43;101591.78;5034799;28;60197;-74
2023/02/26 06:20:46;;;;;;;;;3.50;3.50;;;;;4.78;80.51;101605.81;5031784;28;52374;-74
2023/02/26 06:23:13;;;;;;;;;7.50;2.50;;;;;4.74;80.36;101596.94;5016302;28;47720;-75
2023/02/26 06:25:39;;;;;;;;;1.75;1.75;;;;;4.76;80.69;101597.91;5030653;28;45954;-74
2023/02/26 06:28:05;;;;;;;;;4.00;2.50;;;;;4.72;80.67;101593.34;5035709;28;45531;-74
2023/02/26 06:30:30;;;;;;;;;6.50;2.00;;;;;4.70;80.53;101601.13;5035506;28;45367;-75
2023/02/26 06:32:55;;;;;;;;;8.50;2.50;;;;;4.75;81.02;101614.44;5030619;28;45512;-75
2023/02/26 06:35:21;;;;;;;;;4.25;2.00;;;;;4.76;80.67;101617.94;5035923;28;54232;-75
2023/02/26 06:37:46;;;;;;;;;3.50;2.00;;;;;4.73;80.66;101609.09;5028481;28;45524;-75
2023/02/26 06:40:12;;;;;;;;;5.75;1.75;;;;;4.74;80.92;101620.50;5029110;28;45399;-75
2023/02/26 06:42:37;;;;;;;;;1.75;1.75;;;;;4.72;80.71;101627.34;5039136;28;45562;-75
2023/02/26 06:45:03;;;;;;;;;2.50;1.00;;;;;4.71;80.88;101626.44;5056421;28;61679;-75
2023/02/26 06:47:28;;;;;;;;;5.00;2.00;;;;;4.69;80.94;101633.34;5052760;28;45317;-75
2023/02/26 06:49:53;;;;;;;;;7.25;4.75;;;;;4.70;81.15;101642.97;5046241;28;54340;-74
2023/02/26 06:52:19;;;;;;;;;4.00;2.00;;;;;4.67;81.28;101645.44;5054291;28;54783;-75
2023/02/26 06:54:44;;;;;;;;;1.75;1.00;;;;;4.68;81.42;101646.31;5030465;28;47175;-74
2023/02/26 06:57:10;;;;;;;;;5.00;1.00;;;;;4.69;81.65;101638.56;5054383;28;59990;-75
2023/02/26 06:59:35;;;;;;;;;4.50;1.00;;;;;4.77;82.03;101656.34;5038480;28;46525;-75
2023/02/26 07:02:00;;;;;;;;;8.00;1.50;;;;;4.72;82.31;101640.44;5048810;28;45492;-75
2023/02/26 07:04:26;;;;;;;;;1.25;1.25;;;;;4.79;81.95;101652.06;5054971;28;59103;-74
2023/02/26 07:06:51;;;;;;;;;3.50;1.25;;;;;4.80;82.32;101653.88;5035586;28;45304;-75
2023/02/26 07:09:18;;;;;;;;;5.00;3.00;;;;;4.80;81.87;101652.16;5052487;28;53327;-75
2023/02/26 07:11:44;;;;;;;;;4.00;1.75;;;;;4.80;81.60;101664.34;5035271;28;45372;-75
2023/02/26 07:14:09;;;;;;;;;3.00;3.00;;;;;4.76;81.98;101671.16;5054761;28;45999;-74
2023/02/26 07:16:35;;;;;;;;;4.00;4.00;;;;;4.77;82.39;101677.28;5055041;28;57319;-74
2023/02/26 07:19:00;;;;;;;;;1.25;1.25;;;;;4.77;82.85;101677.28;5038477;28;45437;-75
2023/02/26 07:21:25;;;;;;;;;7.00;2.00;;;;;4.81;82.81;101684.47;5052953;28;49299;-75
2023/02/26 07:23:50;;;;;;;;;1.00;1.00;;;;;4.82;82.98;101686.25;5052746;28;61833;-75
2023/02/26 07:26:16;;;;;;;;;2.00;2.00;;;;;4.81;82.96;101690.59;5052106;28;58635;-75
2023/02/26 07:28:42;;;;;;;;;4.00;1.25;;;;;4.80;82.90;101686.19;5047710;28;45339;-75
2023/02/26 07:31:07;;;;;;;;;3.50;2.00;;;;;4.85;82.82;101699.47;5034103;28;45325;-75
2023/02/26 07:33:33;;;;;;;;;3.50;1.00;;;;;4.86;83.50;101696.03;5050396;28;46042;-75
2023/02/26 07:35:59;;;;;;;;;7.75;3.00;;;;;4.85;83.13;101697.75;5031958;28;45721;-75
2023/02/26 07:38:24;;;;;;;;;4.00;2.00;;;;;4.88;83.38;101700.50;5050911;28;45397;-74
2023/02/26 07:40:50;;;;;;;;;1.00;1.00;;;;;4.92;83.72;101689.38;5051574;28;45466;-74
2023/02/26 07:43:15;;;;;;;;;2.00;2.00;;;;;4.95;83.65;101691.22;5036998;28;45653;-74
2023/02/26 07:45:41;;;;;;;;;3.50;3.50;;;;;4.94;83.86;101692.06;5054411;28;45353;-74
2023/02/26 07:48:06;;;;;;;;;3.00;2.00;;;;;4.97;84.04;101698.34;5036158;28;53719;-74
2023/02/26 07:50:32;;;;;;;;;4.50;1.25;;;;;4.98;83.55;101704.47;5054494;28;45872;-74
2023/02/26 07:52:57;;;;;;;;;3.00;3.00;;;;;5.02;83.98;101706.41;5051081;28;46358;-74
2023/02/26 07:55:23;;;;;;;;;3.50;1.25;;;;;5.01;83.73;101702.00;5054677;28;52286;-74
2023/02/26 07:57:49;;;;;;;;;4.75;4.75;;;;;5.03;83.74;101702.97;5052692;28;49075;-74
2023/02/26 08:00:15;;;;;;;;;5.25;2.00;;;;;5.05;83.93;101700.41;5050069;28;45581;-74
2023/02/26 08:02:40;;;;;;;;;2.00;2.00;;;;;5.10;84.20;101705.03;5048921;28;45810;-74
2023/02/26 08:05:06;;;;;;;;;1.50;1.00;;;;;5.12;84.04;101718.22;5051950;28;52613;-74
2023/02/26 08:07:31;;;;;;;;;6.00;2.00;;;;;5.14;84.05;101713.94;5048943;28;45499;-75
2023/02/26 08:09:57;;;;;;;;;2.00;2.00;;;;;5.14;84.15;101714.84;5034970;28;45324;-74
2023/02/26 08:12:22;;;;;;;;;4.75;3.50;;;;;5.17;84.34;101719.34;5049761;28;46431;-74
2023/02/26 08:14:48;;;;;;;;;3.50;3.50;;;;;5.23;84.31;101722.22;5037357;28;45655;-74
2023/02/26 08:17:13;;;;;;;;;2.25;0.75;;;;;5.22;84.14;101726.56;5054458;28;45310;-74
2023/02/26 08:19:38;;;;;;;;;6.50;3.50;;;;;5.24;84.21;101730.16;5055579;28;45195;-74
2023/02/26 08:22:04;;;;;;;;;5.00;2.00;;;;;5.24;84.19;101724.03;5050373;28;57709;-74
2023/02/26 08:24:29;;;;;;;;;3.50;1.75;;;;;5.26;84.26;101724.97;5050673;28;45424;-74
2023/02/26 08:26:55;;;;;;;;;2.50;1.00;;;;;5.28;84.24;101725.06;5048409;28;54667;-74
2023/02/26 08:29:21;;;;;;;;;1.00;1.00;;;;;5.34;84.38;101733.22;5031149;28;45425;-75
2023/02/26 08:31:47;;;;;;;;;2.50;1.00;;;;;5.37;84.24;101735.94;5048459;28;45481;-74
2023/02/26 08:34:12;;;;;;;;;2.00;2.00;;;;;5.40;84.29;101738.72;5051045;28;45272;-73
2023/02/26 08:36:37;;;;;;;;;4.75;1.75;;;;;5.45;84.29;101748.59;5049373;28;45373;-73
2023/02/26 08:39:03;;;;;;;;;2.00;2.00;;;;;5.43;84.07;101752.88;5053032;28;52564;-73
2023/02/26 08:41:31;;;;;;;;;6.00;1.00;;;;;5.48;83.70;101745.19;5048884;28;46636;-74
2023/02/26 08:43:57;;;;;;;;;2.00;2.00;;;;;5.49;83.29;101744.41;5050402;28;45515;-74
2023/02/26 08:46:23;;;;;;;;;5.25;2.00;;;;;5.50;82.69;101743.56;5031677;28;45316;-74
2023/02/26 08:48:48;;;;;;;;;4.75;1.75;;;;;5.48;81.91;101753.94;5047193;28;46431;-73
2023/02/26 08:51:14;;;;;;;;;1.00;1.00;;;;;5.49;82.11;101747.91;5045425;28;45784;-75
2023/02/26 08:53:39;;;;;;;;;3.00;3.00;;;;;5.50;81.80;101760.19;5049823;28;50951;-74
2023/02/26 08:56:05;;;;;;;;;4.00;2.00;;;;;5.53;82.11;101755.06;5051406;28;45940;-73
2023/02/26 08:58:30;;;;;;;;;1.75;1.00;;;;;5.57;81.32;101757.84;5031398;28;45527;-75
2023/02/26 09:00:55;;;;;;;;;7.75;2.00;;;;;5.62;81.58;101769.41;5035391;28;46325;-73
2023/02/26 09:03:21;;;;;;;;;2.00;2.00;;;;;5.61;81.01;101768.53;5032017;28;45421;-74
2023/02/26 09:05:46;;;;;;;;;1.00;1.00;;;;;5.66;81.18;101772.25;5056427;28;50189;-72
2023/02/26 09:08:14;;;;;;;;;2.00;2.00;;;;;5.72;80.62;101787.34;5036133;28;45730;-73
2023/02/26 09:10:41;;;;;;;;;1.50;1.50;;;;;5.74;80.76;101776.09;5029482;28;47501;-73
2023/02/26 09:13:06;;;;;;;;;2.50;1.00;;;;;5.85;80.80;101780.94;5041226;28;45540;-74
2023/02/26 09:15:31;;;;;;;;;2.00;2.00;;;;;5.98;80.71;101772.84;5041891;28;45476;-74
2023/02/26 09:17:57;;;;;;;;;1.00;1.00;;;;;6.07;79.50;101791.59;5049068;28;45414;-74
2023/02/26 09:20:22;;;;;;;;;0.00;0.00;;;;;6.19;78.83;101794.78;5056112;28;63005;-74
2023/02/26 09:22:48;;;;;;;;;1.00;1.00;;;;;6.22;78.00;101787.03;5034101;28;45658;-73
2023/02/26 09:25:14;;;;;;;;;1.00;1.00;;;;;6.28;78.36;101796.88;5057241;28;53877;-74
2023/02/26 09:27:39;;;;;;;;;1.25;1.00;;;;;6.31;78.39;101807.53;5058077;28;45658;-74
2023/02/26 09:30:05;;;;;;;;;3.50;1.25;;;;;6.35;77.23;101795.44;5057198;28;47612;-74
2023/02/26 09:32:31;;;;;;;;;0.50;0.00;;;;;6.33;76.59;101789.22;5057561;28;45234;-73
2023/02/26 09:35:03;;;;;;;;;2.25;1.00;;;;;6.37;76.42;101804.28;5056851;28;53429;-73
2023/02/26 09:37:28;;;;;;;;;1.75;1.50;;;;;6.36;74.10;101802.47;5038400;28;45571;-72
2023/02/26 09:39:55;;;;;;;;;0.75;0.75;;;;;6.36;73.44;101815.59;5057320;28;45568;-73
2023/02/26 09:42:48;;;;;;;;;2.00;1.25;;;;;6.37;72.91;101810.41;5039438;28;45519;-74
2023/02/26 09:45:37;;;;;;;;;0.50;0.50;;;;;6.43;73.15;101796.66;5056869;28;45435;-72
2023/02/26 09:48:04;;;;;;;;;1.00;1.00;;;;;6.47;72.82;101828.34;5047778;28;45487;-72
2023/02/26 09:50:32;;;;;;;;;1.00;1.00;;;;;6.51;71.84;101808.41;5056574;28;46838;-71
2023/02/26 09:53:04;;;;;;;;;0.00;0.00;;;;;6.57;71.97;101816.53;5056597;28;45459;-71
2023/02/26 09:55:44;;;;;;;;;2.00;0.50;;;;;6.61;72.07;101818.47;5036964;28;45473;-72
2023/02/26 09:58:30;;;;;;;;;1.00;0.00;;;;;6.64;70.14;101820.31;5038287;28;45595;-72
2023/02/26 10:01:17;;;;;;;;;0.75;0.00;;;;;6.65;70.13;101820.38;5051691;28;46593;-76
2023/02/26 10:04:00;;;;;;;;;2.25;1.00;;;;;6.64;68.25;101821.19;5051402;28;45468;-76
2023/02/26 10:06:33;;;;;;;;;2.00;1.00;;;;;6.61;68.20;101813.22;5054891;28;45649;-75
2023/02/26 10:09:20;;;;;;;;;2.00;1.00;;;;;6.61;68.83;101826.34;5036075;28;45610;-76
2023/02/26 10:12:06;;;;;;;;;3.00;0.00;;;;;6.68;70.64;101820.50;5056555;28;46136;-76
2023/02/26 10:15:06;;;;;;;;;1.00;1.00;;;;;6.72;70.34;101830.31;5036895;28;45480;-78
2023/02/26 10:17:50;;;;;;;;;0.50;0.50;;;;;6.73;68.06;101828.59;5039731;28;45466;-77
2023/02/26 10:20:38;;;;;;;;;1.25;1.00;;;;;6.67;67.20;101831.84;5040504;28;45393;-73
2023/02/26 10:23:11;;;;;;;;;2.25;0.00;;;;;6.61;67.32;101831.59;5055669;28;45915;-71
2023/02/26 10:25:41;;;;;;;;;0.00;0.00;;;;;6.63;65.70;101845.66;5038725;28;45587;-73
2023/02/26 10:28:13;;;;;;;;;1.00;1.00;;;;;6.60;65.41;101844.63;5033872;28;45456;-75
2023/02/26 10:30:45;;;;;;;;;2.00;1.00;;;;;6.56;65.21;101836.63;5055683;28;45632;-75
2023/02/26 10:33:21;;;;;;;;;2.25;2.00;;;;;6.61;64.56;101844.69;5032323;28;45694;-73
2023/02/26 10:35:52;;;;;;;;;0.50;0.50;;;;;6.63;63.37;101844.75;5036105;28;45550;-74
2023/02/26 10:38:21;;;;;;;;;0.75;0.75;;;;;6.67;63.53;101841.44;5016778;28;45797;-74
2023/02/26 10:40:50;;;;;;;;;0.00;0.00;;;;;6.64;63.18;101823.81;5035645;28;45518;-75
2023/02/26 10:43:28;;;;;;;;;1.00;1.00;;;;;6.76;63.73;101834.84;5032612;28;46416;-75
2023/02/26 10:46:02;;;;;;;;;1.00;1.00;;;;;6.84;61.91;101832.56;5049029;28;45631;-75
2023/02/26 10:48:43;;;;;;;;;0.25;0.25;;;;;6.90;63.24;101834.53;5049013;28;45429;-74
2023/02/26 10:51:14;;;;;;;;;0.00;0.00;;;;;6.98;63.32;101841.03;5025581;28;45851;-74
2023/02/26 10:53:43;;;;;;;;;2.00;0.00;;;;;7.09;63.66;101847.59;5032139;28;45816;-74
2023/02/26 10:56:15;;;;;;;;;0.00;0.00;;;;;7.20;61.33;101856.81;5053434;28;45564;-75
2023/02/26 10:58:41;;;;;;;;;1.00;1.00;;;;;7.27;61.14;101850.09;5036122;28;45532;-75
2023/02/26 11:01:14;;;;;;;;;3.00;1.00;;;;;7.28;60.70;101850.13;5033035;28;49608;-75
2023/02/26 11:03:42;;;;;;;;;1.25;0.25;;;;;7.33;61.25;101848.59;5020767;28;48350;-75
2023/02/26 11:06:11;;;;;;;;;0.00;0.00;;;;;7.46;60.44;101857.88;5035044;28;45507;-75
2023/02/26 11:08:49;;;;;;;;;0.00;0.00;;;;;7.61;60.48;101854.94;5034648;28;45420;-75
2023/02/26 11:11:36;;;;;;;;;0.50;0.00;;;;;7.77;61.09;101851.19;5038164;28;45600;-75
2023/02/26 11:14:02;;;;;;;;;0.50;0.00;;;;;7.87;61.37;101841.06;5025553;28;45867;-76
2023/02/26 11:16:28;;;;;;;;;0.00;0.00;;;;;7.95;59.34;101840.50;5033943;28;58745;-73
2023/02/26 11:18:54;;;;;;;;;1.00;1.00;;;;;8.08;60.40;101851.50;5035316;28;45460;-75
2023/02/26 11:21:26;;;;;;;;;1.00;1.00;;;;;8.11;58.31;101845.47;5034445;28;45500;-75
2023/02/26 11:23:57;;;;;;;;;1.25;0.00;;;;;8.17;58.58;101850.97;5033068;28;45350;-75
2023/02/26 11:26:26;;;;;;;;;4.75;1.00;;;;;8.23;58.96;101850.28;5032821;28;45476;-76
2023/02/26 11:28:53;;;;;;;;;1.75;1.75;;;;;8.25;57.18;101844.22;5034122;28;45575;-75
2023/02/26 11:31:22;;;;;;;;;1.25;1.00;;;;;8.33;58.40;101853.31;5034027;28;45592;-76
2023/02/26 11:33:50;;;;;;;;;1.00;1.00;;;;;8.36;58.13;101835.06;5033689;28;46367;-76
2023/02/26 11:36:20;;;;;;;;;0.00;0.00;;;;;8.43;58.46;101838.78;5017334;28;45729;-75
2023/02/26 11:39:00;;;;;;;;;0.75;0.75;;;;;8.48;58.46;101833.69;5028888;28;45408;-74
2023/02/26 11:41:27;;;;;;;;;2.50;2.00;;;;;8.55;57.45;101831.31;5033489;28;45467;-75